Meath Environmental Platform

Observations for Trim Patrick St

Time AQI Temp °C Hum % Pres Pa CO μg/m³ H₂S μg/m³ NO μg/m³ NO₂ μg/m³ O₃ μg/m³ SO₂ μg/m³ PM1 μg/m³ PM2.5 μg/m³ PM10 μg/m³
Thursday 6 August 2026
20:32 3 21.1 49 68,786 0 8.93 1.28 15.7 57.55 4.69 2 6.46 7.11
20:31 3 21.1 49 68,798 0 8.48 1.27 14.05 60.84 4.85 2 6.47 7.12
20:30 3 21.1 49 68,788 0 8.4 1.29 12 61.95 4.9 2 6.5 7.14
20:29 3 21.1 49 68,798 0 9.53 1.29 14.05 59.1 5.39 2.86 7.25 7.98
20:28 3 21.1 49 68,811 0 6.76 1.28 11.71 63.3 4.45 2 6.48 7.12
20:27 3 21.1 49 68,833 0 9.45 1.27 15.13 56.36 5.35 2 6.49 7.14
20:26 3 21.2 49 68,833 0 9.95 1.28 18.05 56.22 5.42 2 6.47 7.12
20:25 3 21.2 49 68,833 0 9.69 1.28 16.24 57.72 4.98 2.86 7.25 7.97
20:24 3 21.3 49 68,833 0 9.69 1.33 20.92 53.83 5.06 2 6.5 7.14
20:23 3 21.3 49 68,835 0 9.77 1.32 18.63 55.57 5.03 2 6.5 7.14
20:22 3 21.3 49 68,835 0 9.11 1.28 16.5 58.53 4.99 2 7.25 7.98
20:21 3 21.4 49 68,841 0 8.65 1.29 15.28 59.31 4.91 2 7.25 7.98
20:20 3 21.4 49 68,843 0 9.13 1.31 17.66 57.33 5.07 2 6.5 7.15
20:19 3 21.4 48 68,847 0 10.58 1.3 20.2 54.59 5.46 2.86 8.05 8.86
20:18 3 21.4 48 68,851 0 10.34 1.3 22.21 53.51 5.29 2 6.52 7.17
20:17 3 21.5 48 68,857 0 8.86 1.31 17.32 57.27 5.29 2 6.53 7.18
20:16 3 21.5 48 68,861 0 8.97 1.31 16.12 58.09 5.17 2 7.31 8.04
20:15 3 21.6 48 68,837 0 9.31 1.32 16.68 57.05 5.53 2 7.31 8.04
20:14 3 21.6 48 68,835 0 9.94 1.32 17.58 56.92 5.6 2 6.54 7.19
20:13 3 21.6 48 68,837 0 10.95 1.32 23.97 51.31 5.61 2.86 7.31 8.04